Time;durP1;ratioP1;P1;durP2;ratioP2;P2;SDS_P1;SDS_P2;PMS_P1;PMS_P2;Temp;Humidity;BMP_temperature;BMP_pressure;BME280_temperature;BME280_humidity;BME280_pressure;Samples;Min_cycle;Max_cycle;Signal;HPM_P1;HPM_P2
2021/07/19 00:01:55;;;;;;;11.25;6.10;;;;;;;21.53;52.51;100431.91;6067941;23;20061;-82
2021/07/19 00:04:23;;;;;;;7.25;5.75;;;;;;;21.53;52.62;100437.28;6065795;23;20078;-84
2021/07/19 00:06:51;;;;;;;7.70;5.32;;;;;;;21.53;52.59;100442.63;6067413;23;20027;-82
2021/07/19 00:09:17;;;;;;;8.52;5.72;;;;;;;21.53;52.80;100437.28;6065867;23;20026;-83
2021/07/19 00:11:44;;;;;;;6.63;5.15;;;;;;;21.52;52.86;100430.22;6065868;23;20069;-84
2021/07/19 00:14:11;;;;;;;9.82;5.68;;;;;;;21.52;52.75;100428.38;6067608;23;20027;-83
2021/07/19 00:16:37;;;;;;;8.35;5.25;;;;;;;21.52;52.63;100433.75;6066267;23;20336;-83
2021/07/19 00:19:04;;;;;;;7.68;5.25;;;;;;;21.50;52.91;100433.06;6067660;23;20022;-83
2021/07/19 00:21:31;;;;;;;8.63;5.70;;;;;;;21.52;52.77;100435.59;6067845;23;20049;-83
2021/07/19 00:23:57;;;;;;;8.23;5.82;;;;;;;21.51;52.73;100429.38;6065119;23;20030;-83
2021/07/19 00:26:24;;;;;;;7.88;5.53;;;;;;;21.51;52.53;100429.38;6065922;23;20030;-83
2021/07/19 00:28:51;;;;;;;8.00;5.00;;;;;;;21.52;52.84;100432.91;6067360;23;20086;-83
2021/07/19 00:31:18;;;;;;;6.55;5.50;;;;;;;21.52;53.02;100430.22;6067192;23;20033;-84
2021/07/19 00:33:45;;;;;;;8.07;5.35;;;;;;;21.52;53.06;100424.88;6067047;23;20106;-83
2021/07/19 00:36:11;;;;;;;10.60;6.05;;;;;;;21.51;52.94;100423.16;6066045;23;20027;-83
2021/07/19 00:38:38;;;;;;;7.05;5.55;;;;;;;21.49;53.15;100423.31;6067881;23;20030;-83
2021/07/19 00:41:04;;;;;;;7.90;5.38;;;;;;;21.47;52.77;100425.28;6067869;23;20030;-83
2021/07/19 00:43:32;;;;;;;9.48;5.97;;;;;;;21.45;52.53;100419.22;6067450;23;20034;-84
2021/07/19 00:45:58;;;;;;;7.82;6.13;;;;;;;21.39;52.61;100411.75;6067310;23;20436;-83
2021/07/19 00:48:25;;;;;;;8.13;5.63;;;;;;;21.35;52.47;100420.06;6067274;23;20023;-83
2021/07/19 00:50:53;;;;;;;9.90;6.00;;;;;;;21.32;52.65;100408.81;6065568;23;20031;-84
2021/07/19 00:53:19;;;;;;;6.78;5.10;;;;;;;21.27;52.28;100417.25;6065843;23;20613;-82
2021/07/19 00:55:48;;;;;;;9.55;5.78;;;;;;;21.22;52.77;100415.03;6067513;23;20019;-83
2021/07/19 00:58:15;;;;;;;8.20;6.13;;;;;;;21.18;52.51;100408.25;6066749;23;20053;-83
2021/07/19 01:00:44;;;;;;;8.10;5.60;;;;;;;21.14;52.97;100403.31;6067138;23;20027;-84
2021/07/19 01:03:12;;;;;;;9.20;5.95;;;;;;;21.09;52.61;100399.22;6066703;23;20125;-83
2021/07/19 01:05:41;;;;;;;9.15;6.00;;;;;;;21.05;52.88;100407.69;6067043;23;20038;-83
2021/07/19 01:08:08;;;;;;;7.55;6.35;;;;;;;21.02;52.55;100407.97;6065486;23;20033;-84
2021/07/19 01:10:36;;;;;;;7.10;5.70;;;;;;;20.98;53.01;100411.91;6066568;23;20030;-84
2021/07/19 01:13:05;;;;;;;8.00;5.75;;;;;;;20.94;53.17;100414.84;6067982;23;20050;-84
2021/07/19 01:15:35;;;;;;;9.15;5.88;;;;;;;20.91;53.07;100411.63;6066870;23;20359;-83
2021/07/19 01:18:02;;;;;;;8.48;6.20;;;;;;;20.90;52.70;100415.28;6067379;23;20384;-83
2021/07/19 01:20:59;;;;;;;11.80;6.28;;;;;;;20.81;53.11;100408.88;6067634;23;20033;-84
2021/07/19 01:23:50;;;;;;;9.38;6.43;;;;;;;20.79;53.18;100408.19;6069625;23;20355;-83
2021/07/19 01:26:23;;;;;;;7.40;6.07;;;;;;;20.80;52.87;100407.22;6067049;23;20023;-83
2021/07/19 01:28:51;;;;;;;8.23;5.60;;;;;;;20.75;52.86;100402.25;6066937;23;20467;-83
2021/07/19 01:31:27;;;;;;;9.30;6.78;;;;;;;20.70;53.92;100400.00;6069405;23;20031;-82
2021/07/19 01:34:01;;;;;;;9.73;6.13;;;;;;;20.68;53.80;100403.81;6067009;23;20380;-84
2021/07/19 01:36:30;;;;;;;8.57;6.25;;;;;;;20.66;53.44;100414.66;6066991;23;20359;-84
2021/07/19 01:38:59;;;;;;;10.15;6.18;;;;;;;20.63;53.29;100412.25;6068993;23;20034;-84
2021/07/19 01:41:28;;;;;;;11.95;6.90;;;;;;;20.61;53.49;100421.38;6068708;23;20022;-84
2021/07/19 01:43:56;;;;;;;10.82;6.45;;;;;;;20.57;53.54;100424.31;6068722;23;20031;-83
2021/07/19 01:46:24;;;;;;;8.40;6.50;;;;;;;20.55;53.46;100428.97;6069189;23;20026;-83
2021/07/19 01:48:52;;;;;;;8.57;6.20;;;;;;;20.52;53.41;100426.56;6067536;23;20058;-84
2021/07/19 01:51:19;;;;;;;8.88;6.03;;;;;;;20.50;53.87;100425.88;6066660;23;20027;-84
2021/07/19 01:53:47;;;;;;;8.68;5.82;;;;;;;20.48;53.21;100432.34;6068835;23;20027;-83
2021/07/19 01:56:14;;;;;;;9.93;6.60;;;;;;;20.45;53.86;100433.47;6067141;23;20030;-83
2021/07/19 01:58:42;;;;;;;12.55;6.72;;;;;;;20.43;53.56;100424.72;6067262;23;20026;-85
2021/07/19 02:01:11;;;;;;;8.68;6.50;;;;;;;20.39;53.96;100424.16;6067065;23;20022;-83
2021/07/19 02:03:39;;;;;;;7.50;5.95;;;;;;;20.35;53.83;100422.72;6069168;23;20340;-86
2021/07/19 02:06:07;;;;;;;10.95;7.05;;;;;;;20.33;54.38;100430.00;6067972;23;20022;-84
2021/07/19 02:08:36;;;;;;;10.38;6.38;;;;;;;20.31;54.13;100423.97;6068103;23;20026;-84
2021/07/19 02:11:04;;;;;;;7.88;6.28;;;;;;;20.29;53.97;100433.94;6066689;23;20026;-84
2021/07/19 02:13:34;;;;;;;9.23;5.90;;;;;;;20.25;54.10;100433.38;6067164;23;20463;-83
2021/07/19 02:16:02;;;;;;;9.40;6.55;;;;;;;20.24;54.26;100430.81;6068387;23;20549;-84
2021/07/19 02:18:32;;;;;;;9.82;7.00;;;;;;;20.21;54.54;100421.25;6066671;23;20026;-84
2021/07/19 02:21:01;;;;;;;12.60;7.30;;;;;;;20.18;54.63;100421.50;6066570;23;20026;-84
2021/07/19 02:23:29;;;;;;;8.85;7.15;;;;;;;20.17;54.44;100425.19;6066319;23;20046;-83
2021/07/19 02:25:57;;;;;;;11.35;6.53;;;;;;;20.14;54.51;100420.09;6066234;23;20018;-83
2021/07/19 02:28:25;;;;;;;10.40;7.07;;;;;;;20.11;54.75;100418.53;6067501;23;20027;-84
2021/07/19 02:30:53;;;;;;;11.75;7.60;;;;;;;20.10;54.80;100419.53;6069188;23;20027;-83
2021/07/19 02:33:20;;;;;;;9.70;6.80;;;;;;;20.10;54.98;100405.31;6068117;23;20033;-83
2021/07/19 02:35:50;;;;;;;10.88;7.32;;;;;;;20.08;55.00;100413.47;6067960;23;20039;-83
2021/07/19 02:38:18;;;;;;;12.48;7.32;;;;;;;20.08;54.99;100413.47;6066529;23;20031;-85
2021/07/19 02:40:47;;;;;;;9.95;7.03;;;;;;;20.07;55.43;100417.09;6066795;23;20034;-83
2021/07/19 02:43:15;;;;;;;10.43;7.00;;;;;;;20.08;55.31;100423.31;6068189;23;20027;-84
2021/07/19 02:45:44;;;;;;;11.52;6.97;;;;;;;20.07;55.59;100419.78;6067646;23;20023;-84
2021/07/19 02:48:13;;;;;;;11.65;7.78;;;;;;;20.08;55.69;100420.63;6067490;23;20027;-84
2021/07/19 02:50:43;;;;;;;9.90;7.97;;;;;;;20.10;55.87;100426.69;6067939;23;20038;-83
2021/07/19 02:53:15;;;;;;;13.50;7.72;;;;;;;20.08;56.29;100413.47;6066830;23;20031;-83
2021/07/19 02:55:43;;;;;;;9.95;7.85;;;;;;;20.10;55.66;100416.84;6066616;23;20027;-85
2021/07/19 02:58:17;;;;;;;10.27;7.40;;;;;;;20.08;55.42;100425.97;6068055;23;20351;-84
2021/07/19 03:00:45;;;;;;;8.57;7.28;;;;;;;20.12;55.61;100422.91;6067925;23;20027;-84
2021/07/19 03:03:19;;;;;;;12.63;7.75;;;;;;;20.10;56.09;100424.88;6066168;23;20023;-84
2021/07/19 03:05:53;;;;;;;10.73;7.97;;;;;;;20.10;56.22;100422.19;6067464;23;20033;-84
2021/07/19 03:08:21;;;;;;;11.15;7.25;;;;;;;20.12;55.61;100428.25;6068349;23;20734;-83
2021/07/19 03:10:52;;;;;;;11.93;8.00;;;;;;;20.12;56.08;100433.63;6066561;23;20328;-84
2021/07/19 03:13:24;;;;;;;10.55;7.45;;;;;;;20.12;56.18;100430.94;6068055;23;20022;-83
2021/07/19 03:15:52;;;;;;;11.43;7.60;;;;;;;20.14;55.98;100431.63;6068466;23;20106;-84
2021/07/19 03:18:21;;;;;;;12.40;8.07;;;;;;;20.14;55.77;100420.94;6066384;23;20050;-82
2021/07/19 03:20:50;;;;;;;8.77;7.20;;;;;;;20.17;56.00;100425.19;6068574;23;20466;-82
2021/07/19 03:23:20;;;;;;;11.93;7.78;;;;;;;20.18;56.41;100424.19;6066795;23;20031;-83
2021/07/19 03:25:47;;;;;;;13.35;8.80;;;;;;;20.19;56.16;100417.88;6067612;23;20341;-84
2021/07/19 03:28:17;;;;;;;11.10;8.15;;;;;;;20.18;56.72;100418.84;6065952;23;20026;-83
2021/07/19 03:30:44;;;;;;;11.63;8.20;;;;;;;20.17;56.31;100427.84;6066311;23;20320;-84
2021/07/19 03:33:11;;;;;;;13.07;7.55;;;;;;;20.17;56.50;100422.50;6067329;23;20479;-83
2021/07/19 03:35:38;;;;;;;11.93;8.18;;;;;;;20.16;56.53;100424.34;6067743;23;20023;-84
2021/07/19 03:38:05;;;;;;;13.32;7.68;;;;;;;20.16;56.72;100419.00;6065904;23;20462;-82
2021/07/19 03:40:32;;;;;;;11.07;8.00;;;;;;;20.17;57.08;100414.47;6067665;23;20057;-83
2021/07/19 03:43:00;;;;;;;11.30;8.40;;;;;;;20.16;56.93;100416.31;6066044;23;20022;-83
2021/07/19 03:45:28;;;;;;;10.50;7.65;;;;;;;20.17;57.04;100412.66;6067575;23;20038;-82
2021/07/19 03:47:56;;;;;;;12.18;8.10;;;;;;;20.17;57.10;100418.00;6067776;23;20459;-82
2021/07/19 03:50:23;;;;;;;12.15;8.82;;;;;;;20.18;57.27;100427.72;6067995;23;20026;-83
2021/07/19 03:52:51;;;;;;;13.45;9.32;;;;;;;20.18;56.97;100427.72;6067785;23;20050;-83
2021/07/19 03:55:17;;;;;;;14.60;8.73;;;;;;;20.20;57.13;100424.06;6067359;23;20573;-83
2021/07/19 03:57:45;;;;;;;13.70;8.90;;;;;;;20.20;57.50;100435.59;6065937;23;20023;-85
2021/07/19 04:00:17;;;;;;;12.70;9.55;;;;;;;20.20;57.87;100430.25;6067492;23;20351;-85
2021/07/19 04:02:49;;;;;;;11.10;8.65;;;;;;;20.21;57.38;100429.28;6067412;23;20471;-85
2021/07/19 04:05:18;;;;;;;13.30;8.27;;;;;;;20.23;57.25;100438.03;6065583;23;20027;-85
2021/07/19 04:07:47;;;;;;;12.00;8.80;;;;;;;20.22;57.34;100438.97;6065635;23;20037;-83
2021/07/19 04:10:16;;;;;;;10.68;8.48;;;;;;;20.22;57.42;100440.81;6066185;23;20027;-83
2021/07/19 04:12:49;;;;;;;15.27;8.75;;;;;;;20.21;58.00;100439.09;6066531;23;20034;-83
2021/07/19 04:15:16;;;;;;;;;;;;;;;20.22;56.55;100443.50;6067926;23;20029;-85
2021/07/19 04:17:45;;;;;;;14.68;8.15;;;;;;;20.26;57.36;100440.41;6067665;23;19928;-84
2021/07/19 04:20:13;;;;;;;13.93;9.65;;;;;;;20.26;57.36;100442.25;6067329;23;20332;-83
2021/07/19 04:22:42;;;;;;;14.07;9.82;;;;;;;20.25;57.69;100448.56;6065511;23;20026;-84
2021/07/19 04:25:10;;;;;;;14.50;9.40;;;;;;;20.25;57.56;100445.88;6067191;23;20031;-85
2021/07/19 04:27:38;;;;;;;11.45;9.25;;;;;;;20.25;57.81;100444.06;6065319;23;20499;-83
2021/07/19 04:30:06;;;;;;;12.93;9.43;;;;;;;20.26;57.55;100445.75;6067718;23;20097;-83
2021/07/19 04:32:33;;;;;;;14.15;9.23;;;;;;;20.26;57.98;100442.25;6066959;23;20026;-83
2021/07/19 04:35:00;;;;;;;12.93;9.45;;;;;;;20.27;58.10;100434.09;6067848;23;20423;-84
2021/07/19 04:37:27;;;;;;;19.25;9.30;;;;;;;20.27;57.91;100436.78;6065731;23;20023;-83
2021/07/19 04:39:53;;;;;;;13.55;9.25;;;;;;;20.29;58.01;100434.78;6066621;23;20027;-84
2021/07/19 04:42:20;;;;;;;14.68;8.88;;;;;;;20.31;58.12;100442.69;6067725;23;20038;-83
2021/07/19 04:44:47;;;;;;;11.43;9.45;;;;;;;20.33;58.30;100435.38;6067456;23;20045;-83
2021/07/19 04:47:13;;;;;;;14.05;9.18;;;;;;;20.35;58.15;100435.22;6065569;23;20022;-85
2021/07/19 04:49:41;;;;;;;11.35;8.73;;;;;;;20.37;57.87;100439.47;6066799;23;20031;-84
2021/07/19 04:52:08;;;;;;;12.68;8.27;;;;;;;20.40;58.03;100441.03;6067090;23;20027;-83
2021/07/19 04:54:39;;;;;;;12.38;9.15;;;;;;;20.40;58.44;100439.19;6066934;23;20463;-84
2021/07/19 04:57:13;;;;;;;13.00;9.07;;;;;;;20.39;58.53;100437.50;6065817;23;20030;-85
2021/07/19 04:59:45;;;;;;;14.10;8.80;;;;;;;20.44;58.22;100442.44;6064860;23;20023;-84
2021/07/19 05:02:18;;;;;;;12.77;8.02;;;;;;;20.44;58.24;100445.13;6067435;23;20027;-82
2021/07/19 05:04:47;;;;;;;13.52;8.68;;;;;;;20.50;58.16;100451.75;6068532;23;20027;-82
2021/07/19 05:07:17;;;;;;;11.45;7.55;;;;;;;20.50;58.23;100449.94;6068553;23;20030;-83
2021/07/19 05:09:46;;;;;;;13.23;8.32;;;;;;;20.55;58.16;100460.22;6067658;23;20027;-83
2021/07/19 05:12:16;;;;;;;12.30;7.45;;;;;;;20.56;58.14;100453.91;6067274;23;20034;-83
2021/07/19 05:14:43;;;;;;;13.85;8.23;;;;;;;20.58;58.28;100451.94;6067097;23;20030;-83
2021/07/19 05:17:13;;;;;;;15.95;8.57;;;;;;;20.59;58.29;100455.47;6066954;23;20027;-83
2021/07/19 05:19:41;;;;;;;9.82;7.97;;;;;;;20.61;58.09;100449.00;6065696;23;20026;-85
2021/07/19 05:22:12;;;;;;;12.00;8.30;;;;;;;20.62;58.06;100455.16;6065749;23;20027;-84
2021/07/19 05:24:39;;;;;;;14.30;8.10;;;;;;;20.62;58.02;100456.03;6067114;23;20030;-84
2021/07/19 05:27:07;;;;;;;14.15;7.70;;;;;;;20.64;57.91;100464.75;6065801;23;20050;-84
2021/07/19 05:29:35;;;;;;;12.63;7.75;;;;;;;20.65;58.25;100452.22;6066577;23;20026;-86
2021/07/19 05:32:04;;;;;;;11.80;7.57;;;;;;;20.65;58.40;100453.09;6065765;23;20035;-88
2021/07/19 05:34:31;;;;;;;12.48;8.73;;;;;;;20.68;58.26;100458.13;6065401;23;20039;-87
2021/07/19 05:36:58;;;;;;;13.93;8.10;;;;;;;20.70;58.35;100455.34;6066463;23;20030;-87
2021/07/19 05:39:25;;;;;;;14.43;8.57;;;;;;;20.74;58.40;100461.28;6064854;23;20332;-87
2021/07/19 05:41:52;;;;;;;13.77;7.68;;;;;;;20.78;58.19;100463.53;6065581;23;20538;-87
2021/07/19 05:44:19;;;;;;;13.13;7.53;;;;;;;20.81;58.30;100467.75;6067450;23;20332;-87
2021/07/19 05:46:45;;;;;;;15.05;7.82;;;;;;;20.85;57.99;100469.16;6066726;23;20023;-87
2021/07/19 05:49:12;;;;;;;12.75;7.18;;;;;;;20.90;57.90;100458.09;6066621;23;20027;-86
2021/07/19 05:51:39;;;;;;;8.52;5.63;;;;;;;20.94;57.43;100463.03;6065217;23;20573;-87
2021/07/19 05:54:06;;;;;;;17.08;7.68;;;;;;;20.99;57.41;100456.41;6065712;23;20021;-87
2021/07/19 05:56:34;;;;;;;11.30;6.65;;;;;;;21.04;57.03;100464.91;6065384;23;20058;-87
2021/07/19 05:59:04;;;;;;;9.93;6.18;;;;;;;21.05;56.76;100462.06;6067044;23;20041;-87
2021/07/19 06:01:30;;;;;;;10.18;6.38;;;;;;;21.10;57.06;100458.97;6065243;23;20026;-87
2021/07/19 06:03:59;;;;;;;10.98;6.15;;;;;;;21.11;56.83;100460.66;6067709;23;20400;-87
2021/07/19 06:06:27;;;;;;;8.88;6.05;;;;;;;21.17;57.02;100464.59;6066402;23;20027;-85
2021/07/19 06:08:54;;;;;;;15.20;6.47;;;;;;;21.18;56.67;100456.44;6066483;23;20019;-87
2021/07/19 06:11:20;;;;;;;20.42;6.78;;;;;;;21.21;56.27;100458.84;6068586;23;20031;-87
2021/07/19 06:13:47;;;;;;;12.15;5.78;;;;;;;21.25;56.01;100467.44;6067085;23;20023;-87
2021/07/19 06:16:14;;;;;;;11.82;5.78;;;;;;;21.29;56.00;100468.00;6066875;23;20054;-86
2021/07/19 06:18:41;;;;;;;11.85;5.70;;;;;;;21.31;55.78;100474.06;6066835;23;20030;-86
2021/07/19 06:21:07;;;;;;;11.88;5.93;;;;;;;21.32;56.04;100465.03;6066616;23;20039;-86
2021/07/19 06:23:34;;;;;;;9.77;5.13;;;;;;;21.36;55.91;100471.81;6068355;23;20029;-85
2021/07/19 06:26:01;;;;;;;11.20;5.90;;;;;;;21.39;55.72;100476.91;6068374;23;20037;-86
2021/07/19 06:28:27;;;;;;;9.18;5.35;;;;;;;21.42;55.45;100475.75;6066521;23;20022;-86
2021/07/19 06:30:54;;;;;;;11.80;5.68;;;;;;;21.45;55.55;100473.63;6066960;23;20023;-86
2021/07/19 06:33:21;;;;;;;11.45;5.90;;;;;;;21.47;55.39;100477.03;6066962;23;20045;-87
2021/07/19 06:35:47;;;;;;;12.95;5.20;;;;;;;21.52;55.17;100483.81;6068040;23;20102;-86
2021/07/19 06:38:14;;;;;;;10.30;5.38;;;;;;;21.53;55.05;100475.59;6068150;23;20026;-86
2021/07/19 06:40:41;;;;;;;18.45;6.22;;;;;;;21.55;55.25;100476.31;6067772;23;20031;-85
2021/07/19 06:43:08;;;;;;;10.82;6.22;;;;;;;21.58;54.94;100478.72;6067901;23;20478;-86
2021/07/19 06:45:35;;;;;;;9.85;5.57;;;;;;;21.61;55.05;100482.94;6066438;23;20022;-86
2021/07/19 06:48:02;;;;;;;10.05;5.05;;;;;;;21.62;54.72;100479.28;6067407;23;20487;-85
2021/07/19 06:50:28;;;;;;;7.80;5.25;;;;;;;21.64;54.59;100481.81;6066625;23;20030;-85
2021/07/19 06:52:55;;;;;;;11.77;5.15;;;;;;;21.64;54.63;100476.47;6066306;23;20027;-85
2021/07/19 06:55:21;;;;;;;10.88;5.13;;;;;;;21.64;54.71;100479.13;6066479;23;20050;-85
2021/07/19 06:57:48;;;;;;;11.55;5.15;;;;;;;21.65;54.86;100487.03;6065953;23;20467;-85
2021/07/19 07:00:15;;;;;;;9.57;5.43;;;;;;;21.67;54.47;100490.41;6066323;23;20464;-86
2021/07/19 07:02:41;;;;;;;9.63;4.55;;;;;;;21.70;54.45;100481.22;6067268;23;20455;-87
2021/07/19 07:05:09;;;;;;;9.68;4.75;;;;;;;21.72;54.35;100473.91;6066354;23;20027;-85
2021/07/19 07:07:36;;;;;;;9.55;4.47;;;;;;;21.73;54.28;100470.28;6067976;23;20019;-85
2021/07/19 07:10:05;;;;;;;10.40;4.57;;;;;;;21.77;53.98;100476.19;6068061;23;20106;-86
2021/07/19 07:12:31;;;;;;;9.77;4.65;;;;;;;21.79;53.86;100477.72;6067925;23;20356;-86
2021/07/19 07:14:58;;;;;;;10.57;4.38;;;;;;;21.82;53.60;100484.63;6065917;23;20042;-86
2021/07/19 07:17:25;;;;;;;6.82;3.72;;;;;;;21.85;53.62;100487.03;6067710;23;20030;-85
2021/07/19 07:19:53;;;;;;;8.63;3.97;;;;;;;21.86;53.43;100491.38;6072709;23;20366;-83
2021/07/19 07:22:20;;;;;;;8.77;3.88;;;;;;;21.87;53.18;100493.09;6072677;23;20027;-84
2021/07/19 07:24:47;;;;;;;8.82;4.18;;;;;;;21.86;53.27;100489.56;6069208;23;20080;-84
2021/07/19 07:27:17;;;;;;;8.70;3.85;;;;;;;21.86;53.03;100491.38;6066293;23;20031;-84
2021/07/19 07:29:43;;;;;;;7.63;3.78;;;;;;;21.85;53.17;100495.06;6067368;23;20483;-84
2021/07/19 07:32:10;;;;;;;10.60;4.07;;;;;;;21.84;53.37;100493.38;6068331;23;20362;-84
2021/07/19 07:34:38;;;;;;;10.65;4.70;;;;;;;21.83;53.41;100484.50;6067883;23;20022;-85
2021/07/19 07:37:06;;;;;;;9.18;4.60;;;;;;;21.84;53.44;100482.66;6067896;23;20031;-85
2021/07/19 07:39:32;;;;;;;8.40;4.35;;;;;;;21.86;53.23;100475.31;6065898;23;20019;-85
2021/07/19 07:41:59;;;;;;;11.40;4.25;;;;;;;21.90;53.22;100479.41;6067554;23;20026;-85
2021/07/19 07:44:28;;;;;;;7.35;3.85;;;;;;;21.93;52.70;100479.13;6067512;23;20081;-84
2021/07/19 07:46:55;;;;;;;9.73;4.10;;;;;;;21.98;52.76;100479.53;6066089;23;20054;-85
2021/07/19 07:49:23;;;;;;;6.22;3.83;;;;;;;22.02;52.69;100487.28;6065446;23;20467;-84
2021/07/19 07:51:49;;;;;;;8.20;4.25;;;;;;;22.03;52.17;100480.94;6067504;23;20602;-85
2021/07/19 07:54:16;;;;;;;7.68;3.97;;;;;;;22.03;52.40;100472.88;6066990;23;20022;-85
2021/07/19 07:56:43;;;;;;;10.32;4.05;;;;;;;22.02;52.47;100482.78;6065742;23;20031;-84
2021/07/19 07:59:24;;;;;;;7.13;3.72;;;;;;;22.02;52.55;100489.97;6067620;23;20023;-84
2021/07/19 08:01:51;;;;;;;9.07;3.67;;;;;;;22.01;52.14;100494.47;6066056;23;20035;-84
2021/07/19 08:04:18;;;;;;;9.88;4.55;;;;;;;21.99;52.16;100499.16;6067222;23;20082;-83
2021/07/19 08:06:45;;;;;;;10.48;4.40;;;;;;;21.96;51.98;100497.59;6067871;23;20359;-84
2021/07/19 08:09:11;;;;;;;8.43;3.70;;;;;;;21.95;51.90;100500.41;6067545;23;20351;-85
2021/07/19 08:11:39;;;;;;;7.60;3.58;;;;;;;21.91;52.06;100499.00;6067288;23;20348;-85
2021/07/19 08:14:06;;;;;;;8.68;3.80;;;;;;;21.88;52.15;100497.47;6065588;23;20023;-84
2021/07/19 08:16:36;;;;;;;7.15;3.92;;;;;;;21.84;52.14;100499.59;6067536;23;20062;-84
2021/07/19 08:19:09;;;;;;;20.85;4.28;;;;;;;21.80;51.79;100491.97;6065844;23;20019;-85
2021/07/19 08:21:37;;;;;;;8.10;3.65;;;;;;;21.79;52.28;100495.66;6067507;23;20022;-84
2021/07/19 08:24:05;;;;;;;10.18;3.90;;;;;;;21.77;52.26;100486.91;6065036;23;20038;-85
2021/07/19 08:26:32;;;;;;;28.63;4.70;;;;;;;21.74;52.27;100491.56;6067065;23;20399;-85
2021/07/19 08:28:59;;;;;;;7.05;3.78;;;;;;;21.75;52.01;100489.72;6066841;23;20471;-85
2021/07/19 08:31:27;;;;;;;8.20;4.22;;;;;;;21.74;52.31;100488.03;6065437;23;20033;-84
2021/07/19 08:33:55;;;;;;;7.90;3.80;;;;;;;21.74;52.63;100490.72;6067037;23;20035;-85
2021/07/19 08:36:23;;;;;;;12.32;4.03;;;;;;;21.76;52.33;100487.91;6067983;23;20027;-85
2021/07/19 08:38:50;;;;;;;7.13;4.30;;;;;;;21.74;52.51;100483.53;6067354;23;20019;-85
2021/07/19 08:41:17;;;;;;;7.60;4.38;;;;;;;21.74;52.36;100478.16;6067323;23;20022;-85
2021/07/19 08:43:46;;;;;;;20.13;5.05;;;;;;;21.76;52.41;100478.03;6067842;23;20031;-85
2021/07/19 08:46:14;;;;;;;8.82;4.32;;;;;;;21.77;52.37;100478.84;6065859;23;20055;-85
2021/07/19 08:48:40;;;;;;;8.40;4.57;;;;;;;21.79;51.93;100480.41;6063605;23;20023;-86
2021/07/19 08:51:07;;;;;;;9.88;4.68;;;;;;;21.82;52.25;100485.47;6065650;23;20023;-87
2021/07/19 08:53:38;;;;;;;9.77;4.88;;;;;;;21.84;52.30;100483.53;6065200;23;20030;-87
2021/07/19 08:56:07;;;;;;;9.18;4.35;;;;;;;21.87;52.23;100474.34;6065045;23;20023;-87
2021/07/19 08:58:35;;;;;;;8.82;4.50;;;;;;;21.91;52.53;100473.06;6067190;23;20396;-84
2021/07/19 09:01:03;;;;;;;7.35;4.45;;;;;;;21.96;52.23;100473.47;6066899;23;20062;-84
2021/07/19 09:03:30;;;;;;;12.02;4.63;;;;;;;21.99;52.18;100462.44;6065358;23;20026;-84
2021/07/19 09:05:57;;;;;;;9.85;4.57;;;;;;;22.04;52.38;100466.53;6064911;23;20026;-84
2021/07/19 09:08:24;;;;;;;9.00;4.35;;;;;;;22.06;52.12;100470.78;6065238;23;20034;-84
2021/07/19 09:10:51;;;;;;;9.50;4.40;;;;;;;22.09;52.04;100470.47;6066080;23;20098;-84
2021/07/19 09:13:21;;;;;;;7.70;4.15;;;;;;;22.10;52.07;100472.16;6065532;23;20027;-85
2021/07/19 09:15:57;;;;;;;7.13;4.30;;;;;;;22.08;51.97;100467.94;6065108;23;20030;-84
2021/07/19 09:18:25;;;;;;;8.82;4.80;;;;;;;22.11;51.53;100473.88;6063840;23;20023;-84
2021/07/19 09:20:52;;;;;;;10.30;4.82;;;;;;;22.11;51.90;100473.00;6064843;23;20031;-85
2021/07/19 09:23:29;;;;;;;11.65;4.80;;;;;;;22.06;51.92;100464.56;6063157;23;20030;-85
2021/07/19 09:25:57;;;;;;;11.85;4.70;;;;;;;22.08;52.34;100467.94;6062907;23;20583;-83
2021/07/19 09:28:30;;;;;;;11.27;4.65;;;;;;;22.05;52.07;100463.69;6064452;23;20023;-85
2021/07/19 09:31:05;;;;;;;7.88;4.82;;;;;;;22.05;51.89;100466.38;6065016;23;20031;-85
2021/07/19 09:33:35;;;;;;;12.13;4.32;;;;;;;22.08;51.75;100463.41;6066469;23;20063;-85
2021/07/19 09:36:03;;;;;;;9.30;4.68;;;;;;;22.09;52.03;100461.59;6064704;23;20541;-85
2021/07/19 09:38:31;;;;;;;14.07;5.35;;;;;;;22.10;51.73;100455.25;6068265;23;20019;-86
2021/07/19 09:40:59;;;;;;;10.48;4.90;;;;;;;22.12;51.88;100453.25;6068465;23;20086;-85
2021/07/19 09:43:30;;;;;;;13.27;4.38;;;;;;;22.12;51.84;100451.41;6068522;23;20359;-84
2021/07/19 09:46:02;;;;;;;8.98;4.55;;;;;;;22.18;52.13;100454.50;6068629;23;20030;-85
2021/07/19 09:48:30;;;;;;;8.18;5.43;;;;;;;22.24;51.99;100446.72;6066573;23;20026;-84
2021/07/19 09:50:58;;;;;;;12.05;5.25;;;;;;;22.30;52.25;100455.16;6068468;23;20033;-84
2021/07/19 09:53:28;;;;;;;8.85;4.93;;;;;;;22.36;52.42;100449.22;6068603;23;20336;-84
2021/07/19 09:56:19;;;;;;;10.50;5.63;;;;;;;22.38;51.99;100456.13;6066880;23;20027;-86
2021/07/19 09:58:48;;;;;;;8.38;5.03;;;;;;;22.48;51.91;100457.91;6066898;23;20022;-85
2021/07/19 10:01:28;;;;;;;8.88;4.97;;;;;;;22.48;51.64;100453.41;6068608;23;20023;-85
2021/07/19 10:04:08;;;;;;;16.23;5.40;;;;;;;22.54;51.09;100451.09;6066881;23;20094;-85
2021/07/19 10:06:42;;;;;;;9.40;5.63;;;;;;;22.58;51.53;100455.22;6068259;23;20023;-85
2021/07/19 10:09:11;;;;;;;7.90;5.18;;;;;;;22.64;51.62;100452.78;6066633;23;20027;-85
2021/07/19 10:11:46;;;;;;;9.68;5.70;;;;;;;22.70;51.30;100453.16;6067860;23;20090;-85
2021/07/19 10:14:22;;;;;;;11.18;5.18;;;;;;;22.78;51.62;100458.63;6066790;23;20054;-85
2021/07/19 10:16:50;;;;;;;12.27;5.32;;;;;;;22.86;51.15;100457.88;6068256;23;20038;-85
2021/07/19 10:19:17;;;;;;;10.63;4.90;;;;;;;22.92;50.76;100459.97;6066677;23;20090;-86
2021/07/19 10:21:43;;;;;;;8.93;4.70;;;;;;;22.95;50.67;100456.94;6067894;23;20029;-85
2021/07/19 10:24:10;;;;;;;10.10;4.60;;;;;;;22.98;50.95;100455.81;6067950;23;20027;-84
2021/07/19 10:26:37;;;;;;;13.88;5.20;;;;;;;23.00;50.53;100448.47;6066136;23;20074;-83
2021/07/19 10:29:05;;;;;;;8.80;5.22;;;;;;;23.06;51.32;100444.31;6067960;23;20022;-83
2021/07/19 10:31:33;;;;;;;10.65;5.18;;;;;;;23.14;51.45;100450.59;6066974;23;20031;-83
2021/07/19 10:34:01;;;;;;;10.48;5.10;;;;;;;23.24;52.07;100442.47;6067802;23;20031;-85
2021/07/19 10:36:57;;;;;;;14.23;5.57;;;;;;;23.35;51.62;100438.75;6068096;23;20351;-85
2021/07/19 10:39:36;;;;;;;15.55;5.80;;;;;;;23.54;51.80;100442.25;6067881;23;20023;-85
2021/07/19 10:42:04;;;;;;;12.60;5.90;;;;;;;23.73;52.13;100440.38;6067949;23;20031;-85
2021/07/19 10:44:34;;;;;;;8.38;4.75;;;;;;;23.89;51.39;100442.34;6066296;23;20027;-85
2021/07/19 10:47:19;;;;;;;10.43;5.57;;;;;;;24.01;50.30;100438.38;6068060;23;20350;-86
2021/07/19 10:49:55;;;;;;;8.95;5.85;;;;;;;24.13;50.12;100438.97;6067416;23;20027;-85
2021/07/19 10:52:38;;;;;;;11.13;5.75;;;;;;;24.25;49.41;100439.53;6066305;23;20035;-85
2021/07/19 10:55:08;;;;;;;12.60;6.25;;;;;;;24.36;49.21;100429.50;6068139;23;20367;-85
2021/07/19 10:57:46;;;;;;;11.07;6.05;;;;;;;24.41;49.16;100432.53;6066030;23;20797;-84
2021/07/19 11:00:16;;;;;;;10.13;5.70;;;;;;;24.47;48.75;100431.88;6068088;23;20452;-85
2021/07/19 11:02:43;;;;;;;9.48;5.28;;;;;;;24.49;48.26;100427.19;6067291;23;20030;-84
2021/07/19 11:05:13;;;;;;;10.00;5.82;;;;;;;24.49;48.48;100427.19;6067908;23;20126;-85
2021/07/19 11:07:42;;;;;;;10.30;5.65;;;;;;;24.51;48.97;100422.47;6067422;23;20463;-84
2021/07/19 11:10:22;;;;;;;10.25;5.85;;;;;;;24.52;48.79;100426.84;6067893;23;20023;-83
2021/07/19 11:12:54;;;;;;;10.20;6.15;;;;;;;24.57;47.95;100418.31;6067971;23;20029;-85
2021/07/19 11:15:38;;;;;;;7.65;5.35;;;;;;;24.57;48.05;100416.47;6067791;23;20123;-86
2021/07/19 11:18:20;;;;;;;14.30;6.28;;;;;;;24.59;48.59;100408.19;6065873;23;20346;-87
2021/07/19 11:20:48;;;;;;;10.40;6.15;;;;;;;24.66;47.75;100408.38;6067981;23;20109;-85
2021/07/19 11:23:34;;;;;;;9.52;6.20;;;;;;;24.68;48.39;100407.25;6067312;23;20034;-85
2021/07/19 11:26:06;;;;;;;9.20;5.78;;;;;;;24.77;47.81;100401.84;6067472;23;20081;-85
2021/07/19 11:28:42;;;;;;;13.88;6.45;;;;;;;24.80;46.75;100398.84;6067115;23;20694;-85
2021/07/19 11:31:18;;;;;;;9.38;6.30;;;;;;;24.86;46.80;100395.53;6067757;23;20026;-85